sensor_id;sensor_type;location;lat;lon;timestamp;pressure;altitude;pressure_sealevel;temperature;humidity
6425;BME280;12193;42.642;23.384;2022-11-15T04:08:48;94978.25;;;2.34;100.00
6425;BME280;12193;42.642;23.384;2022-11-15T04:11:18;94981.00;;;2.13;100.00
6425;BME280;12193;42.642;23.384;2022-11-15T04:13:47;94983.03;;;2.01;100.00
6425;BME280;12193;42.642;23.384;2022-11-15T04:16:16;94978.22;;;1.41;100.00
6425;BME280;12193;42.642;23.384;2022-11-15T04:18:45;94981.22;;;1.46;100.00
6425;BME280;12193;42.642;23.384;2022-11-15T04:21:35;94980.53;;;1.53;100.00
6425;BME280;12193;42.642;23.384;2022-11-15T04:24:19;94973.00;;;1.61;100.00
6425;BME280;12193;42.642;23.384;2022-11-15T04:26:49;94973.94;;;1.60;100.00
6425;BME280;12193;42.642;23.384;2022-11-15T04:29:18;94965.16;;;1.44;100.00
6425;BME280;12193;42.642;23.384;2022-11-15T04:32:00;94971.06;;;1.54;100.00
6425;BME280;12193;42.642;23.384;2022-11-15T04:34:29;94972.44;;;1.67;100.00
6425;BME280;12193;42.642;23.384;2022-11-15T04:36:59;94971.72;;;1.84;100.00
6425;BME280;12193;42.642;23.384;2022-11-15T04:39:46;94969.16;;;2.03;100.00
6425;BME280;12193;42.642;23.384;2022-11-15T04:42:15;94973.16;;;2.15;100.00
6425;BME280;12193;42.642;23.384;2022-11-15T04:44:44;94976.22;;;2.28;100.00
6425;BME280;12193;42.642;23.384;2022-11-15T04:47:13;94965.25;;;2.35;100.00
6425;BME280;12193;42.642;23.384;2022-11-15T04:49:43;94964.63;;;2.33;100.00
6425;BME280;12193;42.642;23.384;2022-11-15T04:52:12;94968.50;;;2.37;100.00
6425;BME280;12193;42.642;23.384;2022-11-15T04:54:42;94964.66;;;2.51;100.00
6425;BME280;12193;42.642;23.384;2022-11-15T04:57:13;94961.94;;;2.62;100.00
6425;BME280;12193;42.642;23.384;2022-11-15T04:59:43;94974.72;;;2.71;100.00
6425;BME280;12193;42.642;23.384;2022-11-15T05:02:12;94973.47;;;2.75;100.00
6425;BME280;12193;42.642;23.384;2022-11-15T05:04:41;94969.69;;;2.79;100.00
6425;BME280;12193;42.642;23.384;2022-11-15T05:07:08;94977.59;;;2.86;100.00
6425;BME280;12193;42.642;23.384;2022-11-15T05:09:37;94978.94;;;2.90;100.00
6425;BME280;12193;42.642;23.384;2022-11-15T05:12:07;94977.59;;;2.95;100.00
6425;BME280;12193;42.642;23.384;2022-11-15T05:14:39;94979.31;;;2.95;100.00
6425;BME280;12193;42.642;23.384;2022-11-15T05:17:08;94970.63;;;3.05;100.00
6425;BME280;12193;42.642;23.384;2022-11-15T05:19:37;94975.59;;;3.06;100.00
6425;BME280;12193;42.642;23.384;2022-11-15T05:22:06;94968.16;;;3.13;100.00
6425;BME280;12193;42.642;23.384;2022-11-15T05:24:36;94982.94;;;3.02;100.00
6425;BME280;12193;42.642;23.384;2022-11-15T05:27:05;94977.75;;;3.11;100.00
6425;BME280;12193;42.642;23.384;2022-11-15T05:29:34;94979.72;;;3.17;100.00
6425;BME280;12193;42.642;23.384;2022-11-15T05:32:07;94974.41;;;3.28;100.00
6425;BME280;12193;42.642;23.384;2022-11-15T05:34:37;94976.69;;;3.31;100.00
6425;BME280;12193;42.642;23.384;2022-11-15T05:37:06;94984.75;;;3.36;100.00
6425;BME280;12193;42.642;23.384;2022-11-15T05:39:36;94976.00;;;3.29;100.00
6425;BME280;12193;42.642;23.384;2022-11-15T05:42:08;94975.00;;;3.39;100.00
6425;BME280;12193;42.642;23.384;2022-11-15T05:44:40;94981.22;;;3.54;100.00
6425;BME280;12193;42.642;23.384;2022-11-15T05:47:15;94973.91;;;3.59;100.00
6425;BME280;12193;42.642;23.384;2022-11-15T05:49:47;94978.59;;;3.46;100.00
6425;BME280;12193;42.642;23.384;2022-11-15T05:52:21;94970.94;;;3.54;100.00
6425;BME280;12193;42.642;23.384;2022-11-15T05:54:52;94977.03;;;3.53;100.00
6425;BME280;12193;42.642;23.384;2022-11-15T05:57:21;94975.91;;;3.21;100.00
6425;BME280;12193;42.642;23.384;2022-11-15T05:59:51;94976.44;;;3.42;100.00
6425;BME280;12193;42.642;23.384;2022-11-15T06:02:23;94980.06;;;3.49;100.00
6425;BME280;12193;42.642;23.384;2022-11-15T06:04:52;94983.69;;;3.56;100.00
6425;BME280;12193;42.642;23.384;2022-11-15T06:07:22;94977.72;;;3.55;100.00
6425;BME280;12193;42.642;23.384;2022-11-15T06:09:51;94972.50;;;3.65;100.00
6425;BME280;12193;42.642;23.384;2022-11-15T06:12:20;94977.63;;;3.47;100.00
6425;BME280;12193;42.642;23.384;2022-11-15T06:14:49;94979.69;;;3.61;100.00
6425;BME280;12193;42.642;23.384;2022-11-15T06:17:19;94983.50;;;3.57;100.00
6425;BME280;12193;42.642;23.384;2022-11-15T06:19:51;94981.97;;;3.64;100.00
6425;BME280;12193;42.642;23.384;2022-11-15T06:22:20;94994.75;;;3.74;100.00
6425;BME280;12193;42.642;23.384;2022-11-15T06:24:49;94988.91;;;3.89;100.00
6425;BME280;12193;42.642;23.384;2022-11-15T06:27:18;94991.44;;;3.81;100.00
6425;BME280;12193;42.642;23.384;2022-11-15T06:29:47;94983.72;;;3.64;100.00
6425;BME280;12193;42.642;23.384;2022-11-15T06:32:17;94984.00;;;3.96;100.00
6425;BME280;12193;42.642;23.384;2022-11-15T06:34:46;94979.56;;;4.06;100.00
6425;BME280;12193;42.642;23.384;2022-11-15T06:37:18;94982.06;;;4.15;100.00
6425;BME280;12193;42.642;23.384;2022-11-15T06:39:47;94982.06;;;4.15;100.00
6425;BME280;12193;42.642;23.384;2022-11-15T06:42:17;94985.09;;;4.10;100.00
6425;BME280;12193;42.642;23.384;2022-11-15T06:44:46;94974.44;;;4.06;100.00
6425;BME280;12193;42.642;23.384;2022-11-15T06:47:15;94977.09;;;3.96;100.00
6425;BME280;12193;42.642;23.384;2022-11-15T06:49:44;94975.84;;;3.83;100.00
6425;BME280;12193;42.642;23.384;2022-11-15T06:52:14;94977.63;;;3.65;100.00
6425;BME280;12193;42.642;23.384;2022-11-15T06:54:47;94965.59;;;3.65;100.00
6425;BME280;12193;42.642;23.384;2022-11-15T06:57:16;94981.06;;;3.73;100.00
6425;BME280;12193;42.642;23.384;2022-11-15T06:59:45;94978.13;;;3.86;100.00
6425;BME280;12193;42.642;23.384;2022-11-15T07:02:14;94974.19;;;3.74;100.00
6425;BME280;12193;42.642;23.384;2022-11-15T07:04:44;94978.59;;;3.81;100.00
6425;BME280;12193;42.642;23.384;2022-11-15T07:07:13;94976.88;;;3.90;100.00
6425;BME280;12193;42.642;23.384;2022-11-15T07:09:42;94969.44;;;4.04;100.00
6425;BME280;12193;42.642;23.384;2022-11-15T07:12:14;94974.53;;;4.21;100.00
6425;BME280;12193;42.642;23.384;2022-11-15T07:14:43;94973.75;;;4.21;100.00
6425;BME280;12193;42.642;23.384;2022-11-15T07:17:13;94967.03;;;4.28;100.00
6425;BME280;12193;42.642;23.384;2022-11-15T07:19:42;94971.84;;;4.31;100.00
6425;BME280;12193;42.642;23.384;2022-11-15T07:22:11;94964.41;;;4.20;100.00
6425;BME280;12193;42.642;23.384;2022-11-15T07:24:40;94968.22;;;3.91;100.00
6425;BME280;12193;42.642;23.384;2022-11-15T07:27:09;94966.84;;;3.61;100.00
6425;BME280;12193;42.642;23.384;2022-11-15T07:29:42;94964.34;;;3.69;100.00
6425;BME280;12193;42.642;23.384;2022-11-15T07:32:11;94962.09;;;3.66;100.00
6425;BME280;12193;42.642;23.384;2022-11-15T07:34:40;94962.97;;;4.00;100.00
6425;BME280;12193;42.642;23.384;2022-11-15T07:37:11;94966.78;;;4.13;100.00
6425;BME280;12193;42.642;23.384;2022-11-15T07:39:40;94972.34;;;4.09;100.00
6425;BME280;12193;42.642;23.384;2022-11-15T07:42:10;94966.22;;;3.85;100.00
6425;BME280;12193;42.642;23.384;2022-11-15T07:44:54;94971.25;;;3.86;100.00
6425;BME280;12193;42.642;23.384;2022-11-15T07:47:24;94967.09;;;3.93;100.00
6425;BME280;12193;42.642;23.384;2022-11-15T07:49:53;94970.44;;;4.11;100.00
6425;BME280;12193;42.642;23.384;2022-11-15T07:52:22;94968.78;;;4.27;100.00
6425;BME280;12193;42.642;23.384;2022-11-15T07:54:51;94953.31;;;4.53;100.00
6425;BME280;12193;42.642;23.384;2022-11-15T07:57:21;94945.53;;;4.70;100.00
6425;BME280;12193;42.642;23.384;2022-11-15T07:59:50;94961.06;;;4.86;100.00
6425;BME280;12193;42.642;23.384;2022-11-15T08:02:22;94954.03;;;4.96;100.00
6425;BME280;12193;42.642;23.384;2022-11-15T08:04:51;94961.66;;;4.80;100.00
6425;BME280;12193;42.642;23.384;2022-11-15T08:07:20;94958.47;;;4.78;100.00
6425;BME280;12193;42.642;23.384;2022-11-15T08:09:50;94956.56;;;4.88;100.00
6425;BME280;12193;42.642;23.384;2022-11-15T08:12:19;94954.47;;;4.92;100.00
6425;BME280;12193;42.642;23.384;2022-11-15T08:14:48;94949.88;;;4.70;100.00
6425;BME280;12193;42.642;23.384;2022-11-15T08:17:17;94949.66;;;4.55;100.00
6425;BME280;12193;42.642;23.384;2022-11-15T08:19:49;94950.75;;;4.53;100.00
6425;BME280;12193;42.642;23.384;2022-11-15T08:22:19;94948.41;;;4.67;100.00
6425;BME280;12193;42.642;23.384;2022-11-15T08:24:48;94947.75;;;4.57;100.00
6425;BME280;12193;42.642;23.384;2022-11-15T08:27:17;94946.44;;;4.61;100.00
6425;BME280;12193;42.642;23.384;2022-11-15T08:29:48;94949.78;;;4.46;100.00
6425;BME280;12193;42.642;23.384;2022-11-15T08:32:17;94959.47;;;4.26;100.00
6425;BME280;12193;42.642;23.384;2022-11-15T08:34:49;94957.50;;;4.46;100.00
6425;BME280;12193;42.642;23.384;2022-11-15T08:37:18;94955.34;;;4.67;100.00
6425;BME280;12193;42.642;23.384;2022-11-15T08:39:47;94947.81;;;4.81;100.00
6425;BME280;12193;42.642;23.384;2022-11-15T08:42:17;94946.72;;;4.84;100.00
6425;BME280;12193;42.642;23.384;2022-11-15T08:44:47;94941.81;;;5.06;100.00
6425;BME280;12193;42.642;23.384;2022-11-15T08:47:16;94943.75;;;5.12;100.00
6425;BME280;12193;42.642;23.384;2022-11-15T08:49:45;94931.00;;;5.03;100.00
6425;BME280;12193;42.642;23.384;2022-11-15T08:52:17;94930.31;;;4.93;100.00
6425;BME280;12193;42.642;23.384;2022-11-15T08:54:46;94929.91;;;5.13;100.00
6425;BME280;12193;42.642;23.384;2022-11-15T08:57:16;94925.03;;;5.02;100.00
6425;BME280;12193;42.642;23.384;2022-11-15T08:59:45;94921.88;;;5.24;100.00
6425;BME280;12193;42.642;23.384;2022-11-15T09:02:15;94919.97;;;5.42;100.00
6425;BME280;12193;42.642;23.384;2022-11-15T09:04:44;94926.28;;;5.47;100.00
6425;BME280;12193;42.642;23.384;2022-11-15T09:07:16;94914.03;;;5.57;100.00
6425;BME280;12193;42.642;23.384;2022-11-15T09:09:46;94910.97;;;5.62;100.00
6425;BME280;12193;42.642;23.384;2022-11-15T09:12:15;94905.19;;;5.76;100.00
6425;BME280;12193;42.642;23.384;2022-11-15T09:14:44;94908.91;;;5.81;100.00
6425;BME280;12193;42.642;23.384;2022-11-15T09:17:14;94900.00;;;5.52;100.00
6425;BME280;12193;42.642;23.384;2022-11-15T09:19:43;94898.88;;;5.38;100.00
6425;BME280;12193;42.642;23.384;2022-11-15T09:22:12;94890.81;;;5.41;100.00
6425;BME280;12193;42.642;23.384;2022-11-15T09:24:44;94891.25;;;5.05;100.00
6425;BME280;12193;42.642;23.384;2022-11-15T09:27:13;94896.59;;;5.19;100.00
6425;BME280;12193;42.642;23.384;2022-11-15T09:29:42;94890.00;;;5.33;100.00
6425;BME280;12193;42.642;23.384;2022-11-15T09:32:12;94891.13;;;5.30;100.00
6425;BME280;12193;42.642;23.384;2022-11-15T09:34:41;94886.50;;;5.58;100.00
6425;BME280;12193;42.642;23.384;2022-11-15T09:37:11;94882.47;;;5.79;100.00
6425;BME280;12193;42.642;23.384;2022-11-15T09:39:42;94873.59;;;5.90;100.00
6425;BME280;12193;42.642;23.384;2022-11-15T09:42:35;94870.38;;;6.50;100.00
6425;BME280;12193;42.642;23.384;2022-11-15T09:45:18;94863.84;;;7.00;100.00
6425;BME280;12193;42.642;23.384;2022-11-15T09:48:17;94868.72;;;6.95;100.00
6425;BME280;12193;42.642;23.384;2022-11-15T09:50:52;94862.03;;;7.09;100.00
6425;BME280;12193;42.642;23.384;2022-11-15T09:53:31;94862.06;;;6.70;100.00
6425;BME280;12193;42.642;23.384;2022-11-15T09:56:14;94850.31;;;7.20;100.00
6425;BME280;12193;42.642;23.384;2022-11-15T09:58:52;94852.75;;;7.81;100.00
6425;BME280;12193;42.642;23.384;2022-11-15T10:01:36;94846.09;;;8.16;100.00
6425;BME280;12193;42.642;23.384;2022-11-15T10:04:07;94838.97;;;8.46;100.00
6425;BME280;12193;42.642;23.384;2022-11-15T10:06:42;94836.22;;;8.19;100.00
6425;BME280;12193;42.642;23.384;2022-11-15T10:09:15;94830.50;;;8.38;100.00
6425;BME280;12193;42.642;23.384;2022-11-15T10:11:49;94829.28;;;8.34;100.00
6425;BME280;12193;42.642;23.384;2022-11-15T10:14:20;94819.56;;;8.71;100.00
6425;BME280;12193;42.642;23.384;2022-11-15T10:19:52;94822.69;;;10.07;92.14
6425;BME280;12193;42.642;23.384;2022-11-15T10:22:28;94825.81;;;10.57;89.38
6425;BME280;12193;42.642;23.384;2022-11-15T10:25:16;94808.75;;;10.14;89.79
6425;BME280;12193;42.642;23.384;2022-11-15T10:27:53;94813.00;;;9.94;89.12
6425;BME280;12193;42.642;23.384;2022-11-15T10:30:29;94811.31;;;10.41;89.29
